Time;durP1;ratioP1;P1;durP2;ratioP2;P2;SDS_P1;SDS_P2;PMS_P1;PMS_P2;Temp;Humidity;BMP_temperature;BMP_pressure;BME280_temperature;BME280_humidity;BME280_pressure;Samples;Min_cycle;Max_cycle;Signal;HPM_P1;HPM_P2
2022/10/15 00:00:11;;;;;;;202.55;66.13;;;;;;;;;;6286743;28;20047;-61
2022/10/15 00:03:33;;;;;;;186.98;63.42;;;;;;;;;;6291180;28;20148;-62
2022/10/15 00:06:34;;;;;;;165.02;59.72;;;;;;;;;;6288816;28;20041;-61
2022/10/15 00:09:35;;;;;;;180.13;63.83;;;;;;;;;;6286674;28;20463;-60
2022/10/15 00:12:36;;;;;;;183.95;65.80;;;;;;;;;;6286511;28;20170;-60
2022/10/15 00:15:37;;;;;;;218.88;72.75;;;;;;;;;;6285651;28;20040;-61
2022/10/15 00:18:38;;;;;;;191.02;68.18;;;;;;;;;;6285729;28;20095;-61
2022/10/15 00:21:39;;;;;;;191.48;68.78;;;;;;;;;;6289749;28;20048;-60
2022/10/15 00:24:39;;;;;;;216.63;73.82;;;;;;;;;;6287764;28;20053;-62
2022/10/15 00:27:40;;;;;;;196.02;67.85;;;;;;;;;;6286400;28;20411;-60
2022/10/15 00:30:41;;;;;;;187.48;67.00;;;;;;;;;;6284465;28;20863;-62
2022/10/15 00:33:42;;;;;;;197.77;67.32;;;;;;;;;;6287839;28;20048;-60
2022/10/15 00:36:43;;;;;;;186.25;67.38;;;;;;;;;;6288424;28;20842;-62
2022/10/15 00:39:44;;;;;;;189.45;67.00;;;;;;;;;;6283951;28;20049;-62
2022/10/15 00:42:44;;;;;;;190.30;65.80;;;;;;;;;;6285637;28;20041;-60
2022/10/15 00:45:45;;;;;;;185.60;66.93;;;;;;;;;;6284155;28;20048;-60
2022/10/15 00:48:48;;;;;;;181.27;65.50;;;;;;;;;;6292576;28;20049;-63
2022/10/15 00:52:00;;;;;;;187.02;69.40;;;;;;;;;;6285211;28;20663;-63
2022/10/15 00:55:09;;;;;;;174.15;62.28;;;;;;;;;;6283814;28;20555;-60
2022/10/15 00:58:14;;;;;;;211.32;67.57;;;;;;;;;;6290132;28;20044;-62
2022/10/15 01:01:14;;;;;;;194.13;66.78;;;;;;;;;;6285389;28;20036;-62
2022/10/15 01:04:17;;;;;;;179.50;65.43;;;;;;;;;;6286550;28;20501;-62
2022/10/15 01:07:18;;;;;;;173.07;61.50;;;;;;;;;;6288620;28;20314;-62
2022/10/15 01:10:20;;;;;;;188.48;67.25;;;;;;;;;;6289747;28;20465;-61
2022/10/15 01:13:36;;;;;;;188.68;67.07;;;;;;;;;;6290343;28;20093;-61
2022/10/15 01:17:15;;;;;;;193.00;68.25;;;;;;;;;;6285359;28;20095;-61
2022/10/15 01:20:28;;;;;;;180.68;65.70;;;;;;;;;;6288693;28;20090;-61
2022/10/15 01:23:55;;;;;;;199.25;72.63;;;;;;;;;;6286725;28;20048;-61
2022/10/15 01:27:16;;;;;;;185.57;69.43;;;;;;;;;;6284880;28;20093;-62
2022/10/15 01:30:25;;;;;;;197.07;70.63;;;;;;;;;;6284374;28;20455;-62
2022/10/15 01:33:44;;;;;;;181.35;65.93;;;;;;;;;;6293898;28;20470;-62
2022/10/15 01:36:56;;;;;;;188.25;67.65;;;;;;;;;;6289812;28;20055;-60
2022/10/15 01:40:26;;;;;;;189.18;66.60;;;;;;;;;;6295161;28;20163;-60
2022/10/15 01:43:52;;;;;;;185.57;64.05;;;;;;;;;;6285773;28;20083;-62
2022/10/15 01:46:57;;;;;;;199.35;69.78;;;;;;;;;;6289878;28;20147;-60
2022/10/15 01:50:01;;;;;;;181.05;65.30;;;;;;;;;;6290264;28;20044;-62
2022/10/15 01:53:04;;;;;;;183.60;64.35;;;;;;;;;;6296047;28;20110;-63
2022/10/15 01:56:13;;;;;;;184.65;67.75;;;;;;;;;;6290837;28;20055;-61
2022/10/15 01:59:26;;;;;;;172.70;61.97;;;;;;;;;;6288814;28;20135;-62
2022/10/15 02:02:26;;;;;;;194.15;66.45;;;;;;;;;;6288726;28;20519;-61
2022/10/15 02:06:02;;;;;;;196.85;67.55;;;;;;;;;;6291259;28;20159;-60
2022/10/15 02:09:17;;;;;;;194.18;66.97;;;;;;;;;;6278135;28;20140;-60
2022/10/15 02:12:45;;;;;;;187.32;65.60;;;;;;;;;;6288013;28;20483;-62
2022/10/15 02:16:11;;;;;;;188.85;63.97;;;;;;;;;;6292248;28;20094;-60
2022/10/15 02:19:24;;;;;;;190.98;62.63;;;;;;;;;;6283063;28;20051;-60
2022/10/15 02:22:44;;;;;;;187.18;64.03;;;;;;;;;;6288343;28;20040;-63
2022/10/15 02:25:49;;;;;;;179.32;65.80;;;;;;;;;;6289569;28;20491;-61
2022/10/15 02:28:54;;;;;;;174.05;62.08;;;;;;;;;;6289006;28;20495;-61
2022/10/15 02:31:57;;;;;;;162.60;59.42;;;;;;;;;;6287334;28;20056;-62
2022/10/15 02:34:59;;;;;;;174.10;62.22;;;;;;;;;;6287926;28;20048;-62
2022/10/15 02:38:02;;;;;;;;;;;;;;;;;;6289784;28;20075;-62
2022/10/15 02:41:03;;;;;;;183.82;62.58;;;;;;;;;;6293536;28;19924;-63
2022/10/15 02:44:04;;;;;;;179.52;62.58;;;;;;;;;;6288274;28;20055;-61
2022/10/15 02:47:04;;;;;;;170.82;61.08;;;;;;;;;;6289060;28;20056;-61
2022/10/15 02:50:05;;;;;;;168.93;61.67;;;;;;;;;;6289282;28;20068;-62
2022/10/15 02:53:06;;;;;;;176.43;60.25;;;;;;;;;;6294373;28;20151;-60
2022/10/15 02:56:06;;;;;;;157.60;57.28;;;;;;;;;;6292742;28;20796;-63
2022/10/15 02:59:07;;;;;;;162.10;59.03;;;;;;;;;;6288534;28;20067;-61
2022/10/15 03:02:08;;;;;;;148.68;54.70;;;;;;;;;;6286526;28;20155;-60
2022/10/15 03:05:09;;;;;;;160.70;58.27;;;;;;;;;;6291122;28;20052;-62
2022/10/15 03:08:10;;;;;;;164.55;56.92;;;;;;;;;;6288901;28;20466;-61
2022/10/15 03:11:10;;;;;;;162.88;60.03;;;;;;;;;;6288224;28;21294;-62
2022/10/15 03:14:11;;;;;;;162.60;58.33;;;;;;;;;;6285159;28;20131;-63
2022/10/15 03:17:11;;;;;;;142.68;53.08;;;;;;;;;;6288668;28;20318;-60
2022/10/15 03:20:12;;;;;;;156.98;58.17;;;;;;;;;;6290813;28;20075;-61
2022/10/15 03:23:12;;;;;;;140.05;52.92;;;;;;;;;;6290886;28;20944;-61
2022/10/15 03:26:14;;;;;;;131.73;50.47;;;;;;;;;;6289688;28;20988;-59
2022/10/15 03:29:14;;;;;;;143.73;51.88;;;;;;;;;;6288188;28;20124;-63
2022/10/15 03:32:15;;;;;;;147.45;51.15;;;;;;;;;;6286647;28;20610;-61
2022/10/15 03:35:15;;;;;;;140.50;51.97;;;;;;;;;;6288006;28;20048;-60
2022/10/15 03:38:16;;;;;;;143.68;52.25;;;;;;;;;;6285299;28;20071;-59
2022/10/15 03:41:16;;;;;;;146.13;54.80;;;;;;;;;;6287570;28;20600;-63
2022/10/15 03:44:17;;;;;;;138.05;51.42;;;;;;;;;;6290394;28;20051;-60
2022/10/15 03:47:18;;;;;;;139.18;51.40;;;;;;;;;;6289249;28;20052;-61
2022/10/15 03:50:18;;;;;;;140.75;52.92;;;;;;;;;;6288634;28;20051;-63
2022/10/15 03:53:19;;;;;;;141.55;52.10;;;;;;;;;;6291856;28;20059;-63
2022/10/15 03:56:20;;;;;;;138.45;51.17;;;;;;;;;;6287479;28;20055;-61
2022/10/15 03:59:20;;;;;;;134.50;51.42;;;;;;;;;;6291014;28;20057;-63
2022/10/15 04:02:22;;;;;;;144.37;50.87;;;;;;;;;;6290603;28;20054;-60
2022/10/15 04:05:22;;;;;;;143.32;51.38;;;;;;;;;;6287327;28;20407;-64
2022/10/15 04:08:23;;;;;;;144.65;51.97;;;;;;;;;;6286715;28;20151;-61
2022/10/15 04:11:23;;;;;;;139.60;49.47;;;;;;;;;;6287395;28;20434;-61
2022/10/15 04:14:24;;;;;;;137.10;50.67;;;;;;;;;;6285279;28;20082;-63
2022/10/15 04:17:25;;;;;;;135.00;51.72;;;;;;;;;;6285966;28;20456;-61
2022/10/15 04:20:25;;;;;;;152.60;54.78;;;;;;;;;;6287445;28;20053;-60
2022/10/15 04:23:26;;;;;;;145.90;51.17;;;;;;;;;;6283527;28;20061;-63
2022/10/15 04:26:27;;;;;;;138.60;48.90;;;;;;;;;;6286554;28;20135;-63
2022/10/15 04:29:27;;;;;;;138.27;48.80;;;;;;;;;;6291280;28;20457;-61
2022/10/15 04:32:28;;;;;;;137.80;49.67;;;;;;;;;;6283058;28;20467;-64
2022/10/15 04:35:28;;;;;;;145.27;49.70;;;;;;;;;;6286991;28;20536;-63
2022/10/15 04:38:29;;;;;;;133.70;48.72;;;;;;;;;;6288478;28;20554;-62
2022/10/15 04:41:30;;;;;;;145.35;50.88;;;;;;;;;;6285518;28;20053;-62
2022/10/15 04:44:31;;;;;;;140.35;48.83;;;;;;;;;;6289808;28;20143;-61
2022/10/15 04:47:32;;;;;;;131.18;46.08;;;;;;;;;;6290044;28;20479;-63
2022/10/15 04:50:33;;;;;;;129.13;45.80;;;;;;;;;;6287612;28;20048;-61
2022/10/15 04:53:33;;;;;;;132.93;48.50;;;;;;;;;;6285602;28;20067;-62
2022/10/15 04:56:34;;;;;;;146.02;48.95;;;;;;;;;;6285622;28;20498;-63
2022/10/15 04:59:34;;;;;;;134.32;48.45;;;;;;;;;;6286364;28;20044;-62
2022/10/15 05:02:35;;;;;;;127.68;45.45;;;;;;;;;;6282264;28;20497;-62
2022/10/15 05:05:35;;;;;;;129.70;46.45;;;;;;;;;;6283532;28;20863;-64
2022/10/15 05:08:37;;;;;;;128.52;47.53;;;;;;;;;;6285899;28;20125;-62
2022/10/15 05:11:37;;;;;;;133.60;46.03;;;;;;;;;;6284744;28;20884;-61
2022/10/15 05:14:38;;;;;;;131.15;47.90;;;;;;;;;;6285026;28;20136;-62
2022/10/15 05:17:38;;;;;;;136.18;50.17;;;;;;;;;;6285003;28;20092;-63
2022/10/15 05:20:39;;;;;;;131.68;48.28;;;;;;;;;;6286158;28;20068;-63
2022/10/15 05:23:40;;;;;;;135.13;47.85;;;;;;;;;;6283633;28;20053;-63
2022/10/15 05:26:41;;;;;;;128.37;46.40;;;;;;;;;;6285147;28;20044;-63
2022/10/15 05:29:41;;;;;;;130.57;47.42;;;;;;;;;;6283479;28;20659;-62
2022/10/15 05:32:42;;;;;;;119.78;44.90;;;;;;;;;;6284968;28;20049;-63
2022/10/15 05:35:42;;;;;;;130.30;48.00;;;;;;;;;;6283164;28;20044;-64
2022/10/15 05:38:48;;;;;;;132.20;46.75;;;;;;;;;;6286054;28;20052;-63
2022/10/15 05:41:48;;;;;;;142.60;50.50;;;;;;;;;;6281722;28;20052;-64
2022/10/15 05:44:49;;;;;;;136.80;48.40;;;;;;;;;;6283188;28;20143;-64
2022/10/15 05:47:53;;;;;;;143.13;48.67;;;;;;;;;;6284820;28;20441;-63
2022/10/15 05:51:01;;;;;;;129.13;48.38;;;;;;;;;;6279466;28;20139;-64
2022/10/15 05:54:01;;;;;;;126.13;46.22;;;;;;;;;;6281493;28;20052;-60
2022/10/15 05:57:02;;;;;;;138.00;46.28;;;;;;;;;;6283655;28;20079;-61
2022/10/15 06:00:04;;;;;;;117.10;42.22;;;;;;;;;;6285721;28;20196;-62
2022/10/15 06:03:05;;;;;;;122.30;45.30;;;;;;;;;;6284283;28;20163;-63
2022/10/15 06:06:20;;;;;;;126.93;46.63;;;;;;;;;;6286803;28;20185;-62
2022/10/15 06:09:21;;;;;;;136.48;47.35;;;;;;;;;;6288428;28;20178;-61
2022/10/15 06:12:21;;;;;;;156.02;59.15;;;;;;;;;;6288400;28;20465;-64
2022/10/15 06:15:22;;;;;;;145.40;53.63;;;;;;;;;;6284218;28;20056;-63
2022/10/15 06:18:22;;;;;;;144.93;52.42;;;;;;;;;;6286789;28;20044;-61
2022/10/15 06:21:24;;;;;;;132.68;47.95;;;;;;;;;;6287865;28;20048;-63
2022/10/15 06:24:24;;;;;;;133.45;46.47;;;;;;;;;;6286382;28;20179;-64
2022/10/15 06:27:26;;;;;;;165.40;51.92;;;;;;;;;;6288325;28;20136;-64
2022/10/15 06:30:26;;;;;;;169.97;51.83;;;;;;;;;;6287503;28;20377;-61
2022/10/15 06:33:28;;;;;;;161.77;56.55;;;;;;;;;;6284974;28;20076;-65
2022/10/15 06:36:28;;;;;;;135.85;49.95;;;;;;;;;;6290035;28;20053;-62
2022/10/15 06:39:29;;;;;;;134.85;47.38;;;;;;;;;;6291172;28;20060;-62
2022/10/15 06:42:29;;;;;;;145.07;51.58;;;;;;;;;;6288424;28;20052;-62
2022/10/15 06:45:30;;;;;;;119.60;42.38;;;;;;;;;;6288486;28;20047;-64
2022/10/15 06:48:32;;;;;;;110.63;41.22;;;;;;;;;;6287376;28;20049;-61
2022/10/15 06:51:33;;;;;;;;;;;;;;;;;;6287472;28;20754;-63
2022/10/15 06:54:33;;;;;;;126.43;44.03;;;;;;;;;;6282572;28;19932;-62
2022/10/15 06:57:34;;;;;;;116.57;43.65;;;;;;;;;;6290165;28;20537;-64
2022/10/15 07:00:34;;;;;;;113.03;39.33;;;;;;;;;;6288029;28;20032;-63
2022/10/15 07:03:37;;;;;;;116.43;40.78;;;;;;;;;;6290481;28;20044;-64
2022/10/15 07:06:38;;;;;;;113.28;43.40;;;;;;;;;;6295179;28;20143;-60
2022/10/15 07:09:38;;;;;;;118.40;41.05;;;;;;;;;;6295705;28;20209;-61
2022/10/15 07:12:39;;;;;;;120.10;42.05;;;;;;;;;;6293978;28;20627;-65
2022/10/15 07:15:40;;;;;;;111.47;41.55;;;;;;;;;;6292486;28;20090;-65
2022/10/15 07:18:40;;;;;;;105.80;38.47;;;;;;;;;;6294005;28;20040;-62
2022/10/15 07:21:41;;;;;;;114.07;39.17;;;;;;;;;;6292741;28;20055;-59
2022/10/15 07:24:41;;;;;;;118.28;41.05;;;;;;;;;;6292245;28;20074;-62
2022/10/15 07:27:42;;;;;;;106.18;37.88;;;;;;;;;;6294144;28;20424;-65
2022/10/15 07:30:42;;;;;;;94.55;35.63;;;;;;;;;;6292462;28;20136;-65
2022/10/15 07:33:43;;;;;;;103.85;38.63;;;;;;;;;;6292690;28;20044;-63
2022/10/15 07:36:44;;;;;;;97.22;38.60;;;;;;;;;;6293477;28;20503;-60
2022/10/15 07:39:44;;;;;;;106.93;39.65;;;;;;;;;;6293467;28;20056;-61
2022/10/15 07:42:52;;;;;;;119.47;47.13;;;;;;;;;;6292919;28;20058;-66
2022/10/15 07:45:53;;;;;;;101.00;41.45;;;;;;;;;;6293259;28;20151;-61
2022/10/15 07:48:54;;;;;;;102.45;39.22;;;;;;;;;;6293795;28;20099;-62
2022/10/15 07:51:54;;;;;;;101.28;38.88;;;;;;;;;;6293857;28;20048;-60
2022/10/15 07:54:55;;;;;;;101.75;38.67;;;;;;;;;;6292211;28;20390;-63
2022/10/15 07:57:57;;;;;;;93.78;37.05;;;;;;;;;;6293469;28;20042;-61
2022/10/15 08:01:02;;;;;;;87.15;35.60;;;;;;;;;;6294478;28;20125;-63
2022/10/15 08:04:02;;;;;;;92.07;36.17;;;;;;;;;;6292490;28;20141;-63
2022/10/15 08:07:03;;;;;;;92.72;35.90;;;;;;;;;;6293635;28;20052;-61
2022/10/15 08:10:05;;;;;;;92.80;36.53;;;;;;;;;;6293277;28;20075;-61
2022/10/15 08:13:05;;;;;;;101.18;37.35;;;;;;;;;;6293331;28;20531;-63
2022/10/15 08:16:11;;;;;;;92.50;37.42;;;;;;;;;;6292909;28;20045;-65
2022/10/15 08:19:16;;;;;;;97.68;36.47;;;;;;;;;;6293168;28;20082;-64
2022/10/15 08:22:16;;;;;;;98.68;37.83;;;;;;;;;;6293810;28;20055;-62
2022/10/15 08:25:17;;;;;;;98.97;37.13;;;;;;;;;;6291409;28;20399;-63
2022/10/15 08:28:17;;;;;;;110.82;41.33;;;;;;;;;;6293689;28;20564;-62
2022/10/15 08:31:18;;;;;;;113.35;42.38;;;;;;;;;;6282176;28;20045;-60
2022/10/15 08:34:18;;;;;;;96.82;39.75;;;;;;;;;;6291243;28;20045;-61
2022/10/15 08:37:19;;;;;;;98.30;40.15;;;;;;;;;;6292280;28;20048;-63
2022/10/15 08:40:23;;;;;;;80.78;32.47;;;;;;;;;;6292297;28;20064;-61
2022/10/15 08:43:41;;;;;;;88.22;33.90;;;;;;;;;;6293306;28;20084;-62
2022/10/15 08:46:47;;;;;;;75.43;30.73;;;;;;;;;;6291478;28;20084;-60
2022/10/15 08:49:54;;;;;;;74.38;30.95;;;;;;;;;;6288979;28;20045;-61
2022/10/15 08:52:57;;;;;;;74.55;31.15;;;;;;;;;;6293163;28;20059;-60
2022/10/15 08:56:04;;;;;;;72.90;29.65;;;;;;;;;;6291114;28;20135;-62
2022/10/15 08:59:26;;;;;;;73.82;27.52;;;;;;;;;;6291649;28;20264;-60
2022/10/15 09:02:41;;;;;;;55.88;25.55;;;;;;;;;;6292365;28;20158;-61
2022/10/15 09:06:13;;;;;;;56.92;25.02;;;;;;;;;;6292804;28;20453;-62
2022/10/15 09:09:19;;;;;;;57.55;21.95;;;;;;;;;;6292235;28;20139;-62
2022/10/15 09:12:31;;;;;;;52.08;22.98;;;;;;;;;;6291184;28;20140;-62
2022/10/15 09:15:36;;;;;;;53.58;22.33;;;;;;;;;;6292715;28;20076;-64
2022/10/15 09:18:42;;;;;;;49.83;20.77;;;;;;;;;;6292189;28;20687;-62
2022/10/15 09:21:44;;;;;;;45.28;20.27;;;;;;;;;;6292257;28;20056;-62
2022/10/15 09:24:44;;;;;;;53.72;21.25;;;;;;;;;;6291357;28;20048;-64
2022/10/15 09:27:47;;;;;;;43.47;20.38;;;;;;;;;;6292147;28;20053;-59
2022/10/15 09:30:52;;;;;;;47.47;20.30;;;;;;;;;;6292650;28;20132;-66
2022/10/15 09:34:03;;;;;;;57.10;20.73;;;;;;;;;;6290605;28;20077;-61
2022/10/15 09:37:16;;;;;;;49.23;19.43;;;;;;;;;;6292630;28;20097;-62
2022/10/15 09:40:19;;;;;;;41.63;19.85;;;;;;;;;;6291299;28;20063;-62
2022/10/15 09:43:29;;;;;;;38.63;19.42;;;;;;;;;;6291035;28;20064;-60
2022/10/15 09:46:30;;;;;;;42.85;19.08;;;;;;;;;;6291029;28;20090;-63
2022/10/15 09:49:30;;;;;;;40.47;18.35;;;;;;;;;;6291790;28;20048;-66
2022/10/15 09:53:13;;;;;;;47.70;18.58;;;;;;;;;;6293383;28;20055;-61
2022/10/15 09:56:27;;;;;;;38.08;17.10;;;;;;;;;;6295706;28;20055;-65
2022/10/15 09:59:28;;;;;;;41.92;17.55;;;;;;;;;;6296034;28;20063;-62
2022/10/15 10:02:29;;;;;;;39.60;17.45;;;;;;;;;;6296405;28;20056;-68
2022/10/15 10:05:32;;;;;;;42.45;17.95;;;;;;;;;;6291375;28;20076;-63
2022/10/15 10:08:37;;;;;;;38.17;17.08;;;;;;;;;;6294918;28;20446;-59
2022/10/15 10:11:53;;;;;;;48.15;18.48;;;;;;;;;;6296079;28;20135;-61
2022/10/15 10:14:59;;;;;;;42.90;19.08;;;;;;;;;;6296689;28;20435;-61
2022/10/15 10:18:01;;;;;;;37.75;16.83;;;;;;;;;;6295729;28;20174;-63
2022/10/15 10:21:04;;;;;;;35.13;15.80;;;;;;;;;;6295784;28;20059;-60
2022/10/15 10:24:27;;;;;;;37.80;18.02;;;;;;;;;;6296243;28;20056;-60
2022/10/15 10:27:29;;;;;;;37.45;17.38;;;;;;;;;;6295085;28;20623;-61
2022/10/15 10:30:36;;;;;;;41.97;17.25;;;;;;;;;;6293299;28;20049;-63
2022/10/15 10:33:41;;;;;;;41.58;17.48;;;;;;;;;;6293780;28;20041;-60
2022/10/15 10:36:48;;;;;;;37.60;16.25;;;;;;;;;;6293658;28;20131;-64
2022/10/15 10:39:58;;;;;;;36.50;16.80;;;;;;;;;;6294536;28;20060;-61
2022/10/15 10:43:14;;;;;;;33.38;15.73;;;;;;;;;;6291697;28;20135;-62
2022/10/15 10:46:14;;;;;;;31.17;14.63;;;;;;;;;;6293187;28;20048;-64
2022/10/15 10:49:30;;;;;;;37.85;16.73;;;;;;;;;;6292518;28;20098;-65
2022/10/15 10:52:36;;;;;;;32.08;15.32;;;;;;;;;;6293104;28;20410;-60
2022/10/15 10:55:38;;;;;;;31.90;15.15;;;;;;;;;;6291640;28;20197;-62
2022/10/15 10:58:40;;;;;;;37.10;15.70;;;;;;;;;;6295311;28;20056;-62
2022/10/15 11:01:41;;;;;;;36.70;15.90;;;;;;;;;;6295548;28;20076;-67
2022/10/15 11:04:41;;;;;;;35.97;16.05;;;;;;;;;;6292456;28;20457;-65
2022/10/15 11:08:01;;;;;;;31.50;14.77;;;;;;;;;;6295445;28;20079;-64
2022/10/15 11:11:34;;;;;;;30.85;14.70;;;;;;;;;;6294156;28;20044;-65
2022/10/15 11:14:51;;;;;;;40.40;15.00;;;;;;;;;;6291910;28;20075;-65
2022/10/15 11:18:10;;;;;;;35.90;15.20;;;;;;;;;;6290073;28;20040;-65
2022/10/15 11:21:24;;;;;;;34.25;14.45;;;;;;;;;;6292942;28;20535;-65
2022/10/15 11:24:51;;;;;;;31.63;14.30;;;;;;;;;;6293673;28;20555;-65
2022/10/15 11:28:06;;;;;;;31.40;13.13;;;;;;;;;;6294299;28;20036;-65
2022/10/15 11:31:40;;;;;;;33.05;14.85;;;;;;;;;;6293054;28;20062;-64
2022/10/15 11:35:14;;;;;;;32.85;13.60;;;;;;;;;;6292464;28;20131;-66
2022/10/15 11:38:40;;;;;;;31.33;13.40;;;;;;;;;;6293840;28;20053;-62
2022/10/15 11:42:17;;;;;;;33.45;14.70;;;;;;;;;;6293628;28;20132;-65
2022/10/15 11:45:38;;;;;;;29.38;13.50;;;;;;;;;;6294274;28;20060;-61
2022/10/15 11:48:52;;;;;;;31.33;13.73;;;;;;;;;;6247871;28;20175;-62
2022/10/15 11:52:06;;;;;;;33.72;14.35;;;;;;;;;;6270857;28;20086;-63
2022/10/15 11:55:13;;;;;;;34.35;14.50;;;;;;;;;;6289410;28;20144;-64
2022/10/15 11:58:39;;;;;;;30.27;13.77;;;;;;;;;;6291198;28;20051;-64
2022/10/15 12:01:54;;;;;;;33.67;14.05;;;;;;;;;;6290200;28;20067;-65
2022/10/15 12:05:03;;;;;;;33.38;13.98;;;;;;;;;;6288447;28;21009;-64
2022/10/15 12:08:08;;;;;;;30.60;13.43;;;;;;;;;;6291649;28;20186;-65
2022/10/15 12:11:35;;;;;;;30.17;13.50;;;;;;;;;;6292297;28;20828;-65
2022/10/15 12:14:51;;;;;;;33.05;14.13;;;;;;;;;;6267789;28;20045;-65
2022/10/15 12:18:07;;;;;;;33.28;13.15;;;;;;;;;;6266713;28;20507;-65
2022/10/15 12:21:34;;;;;;;29.42;12.80;;;;;;;;;;6292000;28;20056;-65
2022/10/15 12:24:43;;;;;;;29.27;12.98;;;;;;;;;;6292874;28;20056;-64
2022/10/15 12:27:44;;;;;;;29.60;13.02;;;;;;;;;;6292206;28;20076;-65
2022/10/15 12:31:05;;;;;;;29.00;13.52;;;;;;;;;;6291343;28;20482;-64
2022/10/15 12:34:36;;;;;;;26.38;12.77;;;;;;;;;;6268092;28;20061;-70
2022/10/15 12:37:36;;;;;;;30.23;12.75;;;;;;;;;;6270059;28;20088;-65
2022/10/15 12:40:38;;;;;;;31.25;12.55;;;;;;;;;;6269006;28;20149;-65
2022/10/15 12:43:46;;;;;;;35.97;13.40;;;;;;;;;;6265716;28;20044;-65
2022/10/15 12:46:47;;;;;;;31.80;14.30;;;;;;;;;;6271124;28;20056;-65
2022/10/15 12:50:01;;;;;;;28.23;13.68;;;;;;;;;;6269284;28;20105;-65
2022/10/15 12:53:31;;;;;;;32.13;13.88;;;;;;;;;;6264706;28;20122;-70
2022/10/15 12:56:40;;;;;;;28.80;12.38;;;;;;;;;;6273649;28;20462;-66
2022/10/15 12:59:43;;;;;;;28.52;12.48;;;;;;;;;;6265361;28;20049;-65
2022/10/15 13:02:46;;;;;;;30.65;13.05;;;;;;;;;;6269869;28;20168;-65
2022/10/15 13:05:48;;;;;;;34.83;14.00;;;;;;;;;;6269212;28;20045;-65
2022/10/15 13:08:53;;;;;;;29.67;12.57;;;;;;;;;;6269110;28;20053;-65
2022/10/15 13:11:58;;;;;;;27.17;12.73;;;;;;;;;;6271763;28;20150;-67
2022/10/15 13:15:03;;;;;;;32.22;13.20;;;;;;;;;;6271729;28;20120;-71
2022/10/15 13:18:09;;;;;;;28.27;11.95;;;;;;;;;;6269361;28;20059;-66
2022/10/15 13:21:10;;;;;;;27.73;12.98;;;;;;;;;;6273348;28;20139;-65
2022/10/15 13:24:16;;;;;;;38.25;14.52;;;;;;;;;;6270392;28;20041;-63
2022/10/15 13:27:24;;;;;;;36.00;14.88;;;;;;;;;;6270684;28;20044;-65
2022/10/15 13:30:25;;;;;;;34.22;15.18;;;;;;;;;;6277581;28;20179;-66
2022/10/15 13:33:27;;;;;;;36.65;14.75;;;;;;;;;;6272165;28;20557;-64
2022/10/15 13:36:32;;;;;;;;;;;;;;;;;;6272977;28;20131;-67
2022/10/15 13:39:32;;;;;;;32.28;13.85;;;;;;;;;;6273722;28;19931;-65
2022/10/15 13:42:33;;;;;;;34.53;14.15;;;;;;;;;;6273761;28;20053;-65
2022/10/15 13:45:33;;;;;;;42.00;15.15;;;;;;;;;;6275061;28;20060;-66
2022/10/15 13:48:40;;;;;;;44.60;17.23;;;;;;;;;;6273764;28;20119;-65
2022/10/15 13:51:47;;;;;;;41.15;16.23;;;;;;;;;;6275309;28;20075;-66
2022/10/15 13:54:48;;;;;;;41.40;15.88;;;;;;;;;;6277135;28;20491;-66
2022/10/15 13:57:55;;;;;;;41.15;17.60;;;;;;;;;;6271216;28;20067;-72
2022/10/15 14:00:56;;;;;;;44.25;17.48;;;;;;;;;;6269752;28;20055;-65
2022/10/15 14:03:59;;;;;;;50.35;19.00;;;;;;;;;;6269448;28;20049;-65
2022/10/15 14:07:02;;;;;;;50.95;18.67;;;;;;;;;;6280167;28;20056;-64
2022/10/15 14:10:03;;;;;;;39.78;15.75;;;;;;;;;;6269634;28;20064;-63
2022/10/15 14:13:03;;;;;;;105.55;31.40;;;;;;;;;;6276533;28;20491;-64
2022/10/15 14:16:32;;;;;;;69.05;22.83;;;;;;;;;;6269165;28;20057;-64
2022/10/15 14:19:35;;;;;;;49.58;19.25;;;;;;;;;;6276211;28;20143;-67
2022/10/15 14:22:36;;;;;;;60.17;21.67;;;;;;;;;;6273476;28;20045;-64
2022/10/15 14:25:36;;;;;;;111.10;36.58;;;;;;;;;;6278357;28;20072;-64
2022/10/15 14:28:38;;;;;;;84.60;30.38;;;;;;;;;;6274141;28;20102;-65
2022/10/15 14:31:44;;;;;;;44.50;18.00;;;;;;;;;;6274449;28;20064;-64
2022/10/15 14:34:45;;;;;;;43.60;17.15;;;;;;;;;;6275416;28;20052;-65
2022/10/15 14:37:46;;;;;;;50.07;18.63;;;;;;;;;;6275571;28;20045;-63
2022/10/15 14:41:01;;;;;;;45.50;16.88;;;;;;;;;;6274645;28;20048;-63
2022/10/15 14:44:10;;;;;;;42.35;16.08;;;;;;;;;;6270547;28;20947;-63
2022/10/15 14:47:20;;;;;;;38.35;17.42;;;;;;;;;;6271505;28;20053;-63
2022/10/15 14:50:32;;;;;;;31.35;14.30;;;;;;;;;;6275431;28;20155;-63
2022/10/15 14:53:42;;;;;;;49.88;17.83;;;;;;;;;;6272771;28;20064;-63
2022/10/15 14:56:43;;;;;;;54.47;20.15;;;;;;;;;;6272434;28;20075;-63
2022/10/15 14:59:44;;;;;;;35.03;14.30;;;;;;;;;;6276759;28;20091;-65
2022/10/15 15:02:45;;;;;;;;;;;;;;;;;;6267851;28;20484;-63
2022/10/15 15:05:49;;;;;;;41.97;15.98;;;;;;;;;;6271426;28;19921;-65
2022/10/15 15:08:49;;;;;;;34.47;14.68;;;;;;;;;;6278304;28;20113;-63
2022/10/15 15:11:50;;;;;;;52.25;19.38;;;;;;;;;;6270121;28;20052;-63
2022/10/15 15:14:51;;;;;;;48.28;18.38;;;;;;;;;;6269216;28;20080;-64
2022/10/15 15:17:51;;;;;;;40.88;15.88;;;;;;;;;;6274327;28;20103;-73
2022/10/15 15:20:52;;;;;;;41.15;17.08;;;;;;;;;;6277201;28;20407;-63
2022/10/15 15:23:52;;;;;;;38.90;16.23;;;;;;;;;;6267237;28;20099;-63
2022/10/15 15:26:53;;;;;;;49.67;19.75;;;;;;;;;;6274390;28;20502;-63
2022/10/15 15:29:54;;;;;;;105.90;32.40;;;;;;;;;;6272786;28;20053;-66
2022/10/15 15:32:56;;;;;;;50.22;18.77;;;;;;;;;;6270539;28;20048;-63
2022/10/15 15:36:14;;;;;;;39.10;16.10;;;;;;;;;;6274198;28;20446;-72
2022/10/15 15:39:16;;;;;;;109.18;32.13;;;;;;;;;;6270889;28;20049;-63
2022/10/15 15:42:24;;;;;;;46.95;17.02;;;;;;;;;;6269720;28;20569;-63
2022/10/15 15:45:26;;;;;;;33.85;14.98;;;;;;;;;;6272136;28;21870;-64
2022/10/15 15:48:27;;;;;;;;;;;;;;;;;;6270559;28;20546;-63
2022/10/15 15:51:30;;;;;;;38.15;15.45;;;;;;;;;;6267937;28;19967;-63
2022/10/15 15:54:31;;;;;;;43.42;16.70;;;;;;;;;;6268288;28;20085;-67
2022/10/15 15:57:32;;;;;;;44.35;16.90;;;;;;;;;;6267737;28;20041;-65
2022/10/15 16:00:33;;;;;;;63.35;23.30;;;;;;;;;;6271523;28;20056;-64
2022/10/15 16:03:33;;;;;;;82.90;28.63;;;;;;;;;;6267984;28;20067;-65
2022/10/15 16:06:34;;;;;;;38.47;15.95;;;;;;;;;;6269189;28;20881;-67
2022/10/15 16:09:34;;;;;;;48.90;19.83;;;;;;;;;;6274268;28;20061;-63
2022/10/15 16:12:35;;;;;;;172.60;61.55;;;;;;;;;;6274416;28;20052;-64
2022/10/15 16:15:35;;;;;;;98.85;34.15;;;;;;;;;;6270852;28;20099;-64
2022/10/15 16:18:36;;;;;;;78.00;25.52;;;;;;;;;;6275756;28;20052;-63
2022/10/15 16:21:37;;;;;;;36.92;16.42;;;;;;;;;;6270931;28;20415;-67
2022/10/15 16:24:37;;;;;;;49.88;21.50;;;;;;;;;;6267377;28;20053;-63
2022/10/15 16:27:38;;;;;;;105.25;37.00;;;;;;;;;;6273928;28;20061;-64
2022/10/15 16:30:39;;;;;;;86.43;35.42;;;;;;;;;;6272875;28;20507;-63
2022/10/15 16:33:40;;;;;;;134.85;60.13;;;;;;;;;;6268163;28;20053;-63
2022/10/15 16:36:40;;;;;;;140.70;67.05;;;;;;;;;;6265080;28;21184;-62
2022/10/15 16:39:41;;;;;;;154.05;72.18;;;;;;;;;;6265100;28;20052;-65
2022/10/15 16:42:42;;;;;;;115.05;53.13;;;;;;;;;;6263859;28;20496;-63
2022/10/15 16:45:42;;;;;;;114.57;49.33;;;;;;;;;;6265093;28;20051;-63
2022/10/15 16:48:43;;;;;;;158.32;61.58;;;;;;;;;;6269716;28;20053;-66
2022/10/15 16:51:44;;;;;;;152.30;60.40;;;;;;;;;;6269886;28;20140;-64
2022/10/15 16:54:44;;;;;;;126.72;50.67;;;;;;;;;;6273037;28;20117;-65
2022/10/15 16:57:45;;;;;;;125.72;51.50;;;;;;;;;;6267568;28;20047;-64
2022/10/15 17:00:45;;;;;;;170.32;79.05;;;;;;;;;;6264907;28;20411;-65
2022/10/15 17:03:46;;;;;;;115.45;51.63;;;;;;;;;;6268444;28;20517;-64
2022/10/15 17:06:47;;;;;;;126.50;57.40;;;;;;;;;;6268958;28;20052;-64
2022/10/15 17:09:48;;;;;;;109.22;45.95;;;;;;;;;;6264933;28;20053;-64
2022/10/15 17:12:48;;;;;;;66.47;27.17;;;;;;;;;;6273697;28;20114;-64
2022/10/15 17:15:49;;;;;;;67.00;28.50;;;;;;;;;;6266202;28;20080;-64
2022/10/15 17:18:50;;;;;;;79.82;31.90;;;;;;;;;;6273529;28;20040;-64
2022/10/15 17:21:51;;;;;;;144.85;53.25;;;;;;;;;;6269691;28;20076;-64
2022/10/15 17:24:52;;;;;;;482.40;149.63;;;;;;;;;;6264874;28;20132;-64
2022/10/15 17:27:53;;;;;;;195.77;58.03;;;;;;;;;;6273821;28;20080;-66
2022/10/15 17:30:53;;;;;;;187.43;63.95;;;;;;;;;;6273908;28;20056;-63
2022/10/15 17:33:56;;;;;;;153.23;58.83;;;;;;;;;;6263335;28;20044;-63
2022/10/15 17:36:57;;;;;;;64.65;30.60;;;;;;;;;;6269416;28;20067;-62
2022/10/15 17:39:58;;;;;;;68.40;31.02;;;;;;;;;;6272775;28;20613;-63
2022/10/15 17:42:58;;;;;;;65.32;32.47;;;;;;;;;;6264514;28;20132;-63
2022/10/15 17:46:04;;;;;;;46.28;21.58;;;;;;;;;;6272330;28;20052;-66
2022/10/15 17:49:06;;;;;;;58.88;25.33;;;;;;;;;;6268976;28;20060;-67